Time;durP1;ratioP1;P1;durP2;ratioP2;P2;SDS_P1;SDS_P2;PMS_P1;PMS_P2;Temp;Humidity;BMP_temperature;BMP_pressure;BME280_temperature;BME280_humidity;BME280_pressure;Samples;Min_cycle;Max_cycle;Signal;HPM_P1;HPM_P2
2024/04/11 00:02:17;;;;;;;3.80;1.90;;;11.40;99.90;;;;;;5446962;26;20227;-72
2024/04/11 00:04:48;;;;;;;2.77;2.00;;;11.30;99.90;;;;;;5447007;26;20295;-72
2024/04/11 00:07:14;;;;;;;1.97;1.87;;;11.20;99.90;;;;;;5460912;26;20235;-72
2024/04/11 00:09:43;;;;;;;2.80;1.70;;;11.20;99.90;;;;;;5483400;26;20331;-72
2024/04/11 00:12:09;;;;;;;4.63;2.40;;;11.20;99.90;;;;;;5482974;26;20929;-73
2024/04/11 00:14:38;;;;;;;4.00;2.03;;;11.20;99.90;;;;;;5458641;26;20236;-73
2024/04/11 00:17:04;;;;;;;3.37;2.20;;;11.20;99.90;;;;;;5479421;26;20244;-73
2024/04/11 00:19:35;;;;;;;3.97;1.80;;;11.10;99.90;;;;;;5483389;26;20262;-73
2024/04/11 00:22:05;;;;;;;3.30;1.83;;;11.10;99.90;;;;;;5482756;26;20231;-73
2024/04/11 00:24:35;;;;;;;5.73;2.30;;;11.10;99.90;;;;;;5481122;26;20243;-73
2024/04/11 00:27:00;;;;;;;4.43;2.33;;;11.10;99.90;;;;;;5446635;26;20274;-73
2024/04/11 00:29:30;;;;;;;4.50;2.10;;;11.10;99.90;;;;;;5453725;26;20294;-73
2024/04/11 00:31:55;;;;;;;3.27;1.80;;;11.10;99.90;;;;;;5451233;26;20240;-73
2024/04/11 00:34:31;;;;;;;2.53;2.07;;;11.00;99.90;;;;;;5459678;26;20729;-71
2024/04/11 00:36:59;;;;;;;2.20;2.00;;;11.00;99.90;;;;;;5446515;26;20262;-71
2024/04/11 00:39:30;;;;;;;2.20;2.00;;;10.90;99.90;;;;;;5446152;26;20239;-71
2024/04/11 00:41:56;;;;;;;3.30;2.13;;;10.90;99.90;;;;;;5467953;26;20239;-71
2024/04/11 00:44:29;;;;;;;4.80;2.07;;;10.90;99.90;;;;;;5446588;26;20287;-71
2024/04/11 00:46:57;;;;;;;2.83;2.07;;;10.80;99.90;;;;;;5446495;26;20785;-71
2024/04/11 00:49:26;;;;;;;4.23;2.53;;;10.90;99.90;;;;;;5446577;26;20236;-71
2024/04/11 00:51:52;;;;;;;6.70;2.27;;;10.90;99.90;;;;;;5445776;26;20358;-71
2024/04/11 00:54:22;;;;;;;4.33;2.10;;;11.00;99.90;;;;;;5465554;26;20282;-71
2024/04/11 00:56:51;;;;;;;3.53;2.30;;;10.90;99.90;;;;;;5481297;26;20223;-71
2024/04/11 00:59:20;;;;;;;2.27;2.03;;;10.90;99.90;;;;;;5449102;26;20308;-72
2024/04/11 01:01:46;;;;;;;2.80;2.00;;;10.90;99.90;;;;;;5446246;26;20232;-73
2024/04/11 01:04:15;;;;;;;3.63;2.40;;;10.80;99.90;;;;;;5446200;26;20243;-72
2024/04/11 01:07:06;;;;;;;2.30;2.10;;;10.70;99.90;;;;;;5461444;26;20235;-72
2024/04/11 01:09:31;;;;;;;2.20;2.03;;;10.70;99.90;;;;;;5451920;26;20233;-73
2024/04/11 01:12:00;;;;;;;4.17;2.20;;;10.70;99.90;;;;;;5451913;26;20283;-72
2024/04/11 01:14:29;;;;;;;2.90;2.03;;;10.70;99.90;;;;;;5446369;26;20742;-72
2024/04/11 01:16:57;;;;;;;2.43;2.10;;;10.70;99.90;;;;;;5445950;26;20246;-72
2024/04/11 01:19:26;;;;;;;3.63;2.67;;;10.70;99.90;;;;;;5446309;26;20282;-72
2024/04/11 01:21:55;;;;;;;2.93;2.03;;;10.70;99.90;;;;;;5445328;26;20240;-72
2024/04/11 01:24:27;;;;;;;2.83;2.10;;;10.70;99.90;;;;;;5445676;26;20224;-71
2024/04/11 01:26:52;;;;;;;3.37;2.20;;;10.70;99.90;;;;;;5447425;26;20232;-71
2024/04/11 01:29:21;;;;;;;3.93;3.47;;;10.80;99.90;;;;;;5470638;26;20624;-72
2024/04/11 01:31:53;;;;;;;4.30;2.83;;;10.70;99.90;;;;;;5456811;26;20837;-72
2024/04/11 01:34:22;;;;;;;2.97;2.50;;;10.70;99.90;;;;;;5445459;26;20671;-72
2024/04/11 01:36:49;;;;;;;3.90;2.37;;;10.70;99.90;;;;;;5444979;26;20247;-71
2024/04/11 01:39:17;;;;;;;3.50;2.53;;;10.70;99.90;;;;;;5462779;26;20600;-71
2024/04/11 01:41:46;;;;;;;2.63;2.10;;;10.70;99.90;;;;;;5478747;26;20266;-71
2024/04/11 01:44:14;;;;;;;2.50;2.30;;;10.70;99.90;;;;;;5448664;26;20765;-71
2024/04/11 01:46:40;;;;;;;3.63;2.50;;;10.70;99.90;;;;;;5445473;26;20687;-71
2024/04/11 01:49:09;;;;;;;4.70;2.60;;;10.70;99.90;;;;;;5444887;26;20240;-71
2024/04/11 01:51:34;;;;;;;2.10;2.00;;;10.60;99.90;;;;;;5444290;26;20719;-71
2024/04/11 01:54:05;;;;;;;3.17;2.40;;;10.60;99.90;;;;;;5481008;26;20231;-71
2024/04/11 01:56:34;;;;;;;4.60;2.70;;;10.60;99.90;;;;;;5481653;26;20732;-71
2024/04/11 01:59:06;;;;;;;3.87;2.50;;;10.70;99.90;;;;;;5451787;26;20236;-71
2024/04/11 02:01:34;;;;;;;4.20;2.60;;;10.70;99.90;;;;;;5470320;26;20326;-71
2024/04/11 02:04:05;;;;;;;3.70;2.27;;;10.60;99.90;;;;;;5481111;26;20243;-71
2024/04/11 02:06:32;;;;;;;2.50;2.30;;;10.60;99.90;;;;;;5481104;26;20941;-71
2024/04/11 02:09:05;;;;;;;3.97;2.30;;;10.50;99.90;;;;;;5481170;26;20219;-71
2024/04/11 02:11:32;;;;;;;2.47;2.27;;;10.50;99.90;;;;;;5465560;26;20299;-71
2024/04/11 02:14:00;;;;;;;3.40;2.60;;;10.50;99.90;;;;;;5457720;26;20321;-71
2024/04/11 02:16:29;;;;;;;3.20;2.63;;;10.50;99.90;;;;;;5464476;26;20237;-72
2024/04/11 02:18:58;;;;;;;8.40;2.90;;;10.50;99.90;;;;;;5448678;26;20240;-72
2024/04/11 02:21:24;;;;;;;5.07;2.73;;;10.50;99.90;;;;;;5444417;26;20372;-71
2024/04/11 02:23:52;;;;;;;2.53;2.33;;;10.40;99.90;;;;;;5469797;26;20235;-72
2024/04/11 02:26:18;;;;;;;3.60;2.77;;;10.40;99.90;;;;;;5466563;26;20290;-72
2024/04/11 02:28:47;;;;;;;3.30;2.57;;;10.40;99.90;;;;;;5456091;26;20731;-72
2024/04/11 02:31:13;;;;;;;2.87;2.63;;;10.40;99.90;;;;;;5444650;26;20232;-72
2024/04/11 02:33:46;;;;;;;10.97;3.20;;;10.40;99.90;;;;;;5456937;26;20247;-72
2024/04/11 02:36:12;;;;;;;3.20;2.80;;;10.40;99.90;;;;;;5450880;26;20236;-72
2024/04/11 02:38:40;;;;;;;4.07;2.73;;;10.40;99.90;;;;;;5442244;26;20266;-72
2024/04/11 02:41:07;;;;;;;3.67;2.90;;;10.40;99.90;;;;;;5442215;26;20220;-72
2024/04/11 02:43:39;;;;;;;3.87;3.10;;;10.40;99.90;;;;;;5450721;26;20278;-72
2024/04/11 02:46:13;;;;;;;4.63;3.33;;;10.30;99.90;;;;;;5462771;26;20273;-72
2024/04/11 02:48:44;;;;;;;3.37;3.10;;;10.40;99.90;;;;;;5445963;26;20274;-72
2024/04/11 02:51:11;;;;;;;4.60;3.10;;;10.40;99.90;;;;;;5441636;26;21282;-73
2024/04/11 02:53:39;;;;;;;5.13;3.20;;;10.40;99.90;;;;;;5453394;26;20242;-72
2024/04/11 02:56:07;;;;;;;3.30;3.00;;;10.40;99.90;;;;;;5478698;26;20326;-72
2024/04/11 02:58:36;;;;;;;4.23;3.73;;;10.40;99.90;;;;;;5458501;26;20316;-72
2024/04/11 03:01:04;;;;;;;4.33;3.03;;;10.40;99.90;;;;;;5450488;26;20330;-72
2024/04/11 03:03:34;;;;;;;6.80;3.43;;;10.30;99.90;;;;;;5444833;26;20340;-72
2024/04/11 03:06:07;;;;;;;7.73;3.47;;;10.30;99.90;;;;;;5445912;26;20263;-72
2024/04/11 03:08:36;;;;;;;6.63;3.30;;;10.30;99.90;;;;;;5446516;26;20275;-72
2024/04/11 03:11:02;;;;;;;5.17;3.37;;;10.20;99.90;;;;;;5447350;26;20232;-72
2024/04/11 03:13:33;;;;;;;3.93;3.20;;;10.30;99.90;;;;;;5446743;26;20287;-72
2024/04/11 03:16:00;;;;;;;3.47;3.17;;;10.30;99.90;;;;;;5447519;26;20228;-72
2024/04/11 03:18:29;;;;;;;3.50;3.20;;;10.30;99.90;;;;;;5447490;26;20279;-72
2024/04/11 03:20:55;;;;;;;3.57;3.27;;;10.30;99.90;;;;;;5447608;26;20236;-72
2024/04/11 03:23:28;;;;;;;3.57;3.03;;;10.30;99.90;;;;;;5464970;26;20228;-72
2024/04/11 03:25:55;;;;;;;3.20;3.00;;;10.30;99.90;;;;;;5447667;26;20287;-71
2024/04/11 03:28:24;;;;;;;4.87;3.47;;;10.30;99.90;;;;;;5461180;26;20575;-72
2024/04/11 03:30:54;;;;;;;3.97;3.13;;;10.30;99.90;;;;;;5481200;26;20243;-72
2024/04/11 03:33:22;;;;;;;4.00;3.57;;;10.30;99.90;;;;;;5483824;26;20227;-72
2024/04/11 03:35:53;;;;;;;3.63;3.30;;;10.30;99.90;;;;;;5484260;26;20258;-72
2024/04/11 03:38:24;;;;;;;5.23;3.00;;;10.20;99.90;;;;;;5483147;26;20698;-72
2024/04/11 03:41:02;;;;;;;3.80;3.50;;;10.20;99.90;;;;;;5472027;26;20262;-72
2024/04/11 03:43:31;;;;;;;4.40;3.33;;;10.20;99.90;;;;;;5447552;26;20678;-72
2024/04/11 03:46:07;;;;;;;3.93;3.60;;;10.20;99.90;;;;;;5447830;26;20420;-72
2024/04/11 03:48:36;;;;;;;3.77;3.47;;;10.10;99.90;;;;;;5447388;26;20295;-72
2024/04/11 03:51:11;;;;;;;5.60;3.73;;;10.20;99.90;;;;;;5446925;26;20336;-71
2024/04/11 03:53:39;;;;;;;4.90;3.87;;;10.10;99.90;;;;;;5447580;26;20328;-72
2024/04/11 03:56:09;;;;;;;4.80;3.40;;;10.10;99.90;;;;;;5447259;26;20279;-72
2024/04/11 03:58:38;;;;;;;5.40;3.60;;;10.00;99.90;;;;;;5464379;26;20239;-72
2024/04/11 04:01:05;;;;;;;4.63;3.50;;;9.90;99.90;;;;;;5483463;26;20629;-72
2024/04/11 04:03:35;;;;;;;4.40;4.00;;;9.90;99.90;;;;;;5483385;26;20239;-72
2024/04/11 04:06:00;;;;;;;5.13;3.70;;;9.90;99.90;;;;;;5483159;26;20242;-72
2024/04/11 04:08:29;;;;;;;10.07;5.17;;;9.90;99.90;;;;;;5483427;26;20227;-71
2024/04/11 04:10:55;;;;;;;6.67;5.03;;;9.90;99.90;;;;;;5460148;26;20757;-71
2024/04/11 04:13:26;;;;;;;6.47;5.47;;;9.90;99.90;;;;;;5447168;26;20232;-72
2024/04/11 04:15:53;;;;;;;6.80;4.90;;;9.80;99.90;;;;;;5446769;26;20228;-72
2024/04/11 04:18:22;;;;;;;6.50;5.20;;;9.90;99.90;;;;;;5446525;26;20271;-73
2024/04/11 04:20:53;;;;;;;9.27;5.83;;;9.90;99.90;;;;;;5446855;26;20798;-72
2024/04/11 04:23:22;;;;;;;7.87;5.83;;;9.90;99.90;;;;;;5446209;26;20220;-73
2024/04/11 04:25:54;;;;;;;8.30;6.07;;;9.90;99.90;;;;;;5454805;26;20322;-73
2024/04/11 04:28:25;;;;;;;7.63;6.30;;;9.90;99.90;;;;;;5483105;26;20265;-73
2024/04/11 04:30:51;;;;;;;7.73;6.07;;;9.90;99.90;;;;;;5482868;26;20227;-73
2024/04/11 04:33:20;;;;;;;6.37;5.77;;;9.90;99.90;;;;;;5482924;26;20850;-73
2024/04/11 04:35:46;;;;;;;6.27;5.40;;;9.90;99.90;;;;;;5483043;26;20705;-73
2024/04/11 04:38:16;;;;;;;6.37;5.77;;;9.90;99.90;;;;;;5453226;26;20236;-73
2024/04/11 04:40:42;;;;;;;7.13;5.57;;;9.90;99.90;;;;;;5446474;26;20229;-73
2024/04/11 04:43:11;;;;;;;6.27;5.77;;;9.90;99.90;;;;;;5446166;26;20728;-73
2024/04/11 04:45:44;;;;;;;5.90;5.30;;;9.90;99.90;;;;;;5446499;26;20233;-73
2024/04/11 04:48:13;;;;;;;6.40;5.73;;;9.80;99.90;;;;;;5446013;26;20240;-73
2024/04/11 04:50:40;;;;;;;6.80;6.07;;;9.80;99.90;;;;;;5446277;26;20797;-73
2024/04/11 04:53:08;;;;;;;8.93;6.10;;;9.70;99.90;;;;;;5445552;26;20239;-73
2024/04/11 04:55:34;;;;;;;6.80;5.47;;;9.70;99.90;;;;;;5446203;26;20232;-74
2024/04/11 04:58:03;;;;;;;5.80;5.20;;;9.70;99.90;;;;;;5445498;26;20768;-73
2024/04/11 05:00:29;;;;;;;6.83;5.40;;;9.70;99.90;;;;;;5445616;26;20224;-73
2024/04/11 05:03:08;;;;;;;11.33;5.87;;;9.70;99.90;;;;;;5445815;26;20582;-73
2024/04/11 05:05:35;;;;;;;6.20;5.40;;;9.70;99.90;;;;;;5445911;26;20266;-73
2024/04/11 05:08:07;;;;;;;5.70;5.20;;;9.80;99.90;;;;;;5445477;26;20736;-73
2024/04/11 05:10:34;;;;;;;5.93;5.23;;;9.80;99.90;;;;;;5446111;26;21147;-73
2024/04/11 05:13:09;;;;;;;7.73;5.63;;;9.50;99.90;;;;;;5445148;26;20610;-73
2024/04/11 05:15:35;;;;;;;7.03;5.30;;;9.70;99.90;;;;;;5446202;26;20244;-73
2024/04/11 05:18:07;;;;;;;5.93;5.33;;;9.70;99.90;;;;;;5445780;26;20992;-73
2024/04/11 05:20:34;;;;;;;8.73;5.33;;;9.70;99.90;;;;;;5445482;26;20247;-73
2024/04/11 05:23:06;;;;;;;5.70;5.20;;;9.80;99.90;;;;;;5445433;26;20324;-73
2024/04/11 05:25:33;;;;;;;5.43;4.90;;;9.80;99.90;;;;;;5444882;26;20223;-73
2024/04/11 05:28:07;;;;;;;8.10;5.60;;;9.90;99.90;;;;;;5453125;26;20246;-73
2024/04/11 05:30:33;;;;;;;5.77;5.00;;;9.90;99.90;;;;;;5481998;26;20230;-73
2024/04/11 05:33:04;;;;;;;5.20;4.70;;;9.90;99.90;;;;;;5474559;26;20581;-72
2024/04/11 05:35:33;;;;;;;6.33;4.97;;;9.90;99.90;;;;;;5445931;26;20282;-72
2024/04/11 05:38:01;;;;;;;5.63;5.13;;;9.90;99.90;;;;;;5445440;26;20728;-72
2024/04/11 05:40:28;;;;;;;5.27;4.87;;;9.90;99.90;;;;;;5445795;26;20275;-72
2024/04/11 05:42:56;;;;;;;6.00;5.37;;;10.00;99.90;;;;;;5445709;26;20266;-73
2024/04/11 05:45:24;;;;;;;5.60;4.87;;;10.00;99.90;;;;;;5445552;26;20266;-72
2024/04/11 05:47:55;;;;;;;6.73;4.93;;;10.00;99.90;;;;;;5445507;26;20228;-73
2024/04/11 05:50:20;;;;;;;5.73;5.20;;;10.00;99.90;;;;;;5445471;26;21011;-73
2024/04/11 05:52:52;;;;;;;6.60;4.73;;;10.00;99.90;;;;;;5444875;26;20325;-73
2024/04/11 05:55:18;;;;;;;6.50;5.23;;;10.10;99.90;;;;;;5445283;26;20692;-73
2024/04/11 05:57:47;;;;;;;5.03;4.63;;;10.10;99.90;;;;;;5445392;26;20600;-73
2024/04/11 06:00:13;;;;;;;6.57;4.63;;;10.10;99.90;;;;;;5445659;26;20263;-73
2024/04/11 06:02:42;;;;;;;6.23;5.00;;;10.10;99.90;;;;;;5445258;26;20244;-73
2024/04/11 06:05:08;;;;;;;6.60;5.03;;;10.10;99.90;;;;;;5445064;26;20224;-73
2024/04/11 06:07:39;;;;;;;6.07;5.00;;;10.10;99.90;;;;;;5444997;26;20232;-73
2024/04/11 06:10:11;;;;;;;5.20;4.80;;;10.10;99.90;;;;;;5445251;26;20228;-73
2024/04/11 06:12:40;;;;;;;5.23;4.50;;;10.20;99.90;;;;;;5445208;26;20270;-74
2024/04/11 06:15:07;;;;;;;5.30;4.77;;;10.20;99.90;;;;;;5444902;26;20731;-73
2024/04/11 06:17:36;;;;;;;5.80;5.03;;;10.20;99.90;;;;;;5445034;26;20232;-73
2024/04/11 06:20:03;;;;;;;7.30;5.43;;;10.20;99.90;;;;;;5479218;26;20722;-73
2024/04/11 06:22:35;;;;;;;7.03;5.33;;;10.30;99.90;;;;;;5481470;26;20274;-73
2024/04/11 06:25:01;;;;;;;5.50;5.00;;;10.30;99.90;;;;;;5481361;26;20262;-73
2024/04/11 06:27:33;;;;;;;7.77;5.40;;;10.30;99.90;;;;;;5481485;26;20235;-73
2024/04/11 06:30:02;;;;;;;5.33;4.93;;;10.40;99.90;;;;;;5444702;26;20778;-73
2024/04/11 06:32:31;;;;;;;5.73;5.23;;;10.40;99.90;;;;;;5444909;26;20244;-73
2024/04/11 06:34:57;;;;;;;6.50;4.87;;;10.50;99.90;;;;;;5445150;26;20271;-73
2024/04/11 06:37:26;;;;;;;6.20;5.40;;;10.60;99.90;;;;;;5445086;26;20224;-73
2024/04/11 06:39:53;;;;;;;5.80;5.27;;;10.60;99.90;;;;;;5448101;26;20270;-73
2024/04/11 06:42:21;;;;;;;6.87;5.27;;;10.70;99.90;;;;;;5448026;26;20220;-73
2024/04/11 06:44:50;;;;;;;5.37;4.87;;;10.70;99.90;;;;;;5448404;26;20232;-73
2024/04/11 06:47:18;;;;;;;6.03;5.17;;;10.70;99.90;;;;;;5448112;26;20228;-73
2024/04/11 06:49:46;;;;;;;6.17;5.07;;;10.80;99.90;;;;;;5448011;26;20616;-73
2024/04/11 06:52:16;;;;;;;9.37;5.43;;;10.80;99.90;;;;;;5447655;26;20232;-73
2024/04/11 06:54:46;;;;;;;7.50;4.70;;;10.90;99.90;;;;;;5448374;26;20227;-73
2024/04/11 06:57:18;;;;;;;11.83;8.60;;;10.90;99.90;;;;;;5448040;26;20228;-73
2024/04/11 06:59:46;;;;;;;6.67;5.50;;;11.00;99.90;;;;;;5472316;26;20273;-73
2024/04/11 07:02:17;;;;;;;6.40;4.80;;;11.10;99.90;;;;;;5483751;26;20277;-73
2024/04/11 07:04:43;;;;;;;4.77;3.80;;;11.10;99.90;;;;;;5484348;26;20231;-73
2024/04/11 07:07:12;;;;;;;9.90;4.67;;;11.20;99.90;;;;;;5475695;26;20239;-73
2024/04/11 07:09:39;;;;;;;9.50;3.90;;;11.30;99.90;;;;;;5447649;26;20279;-73
2024/04/11 07:12:10;;;;;;;4.30;3.90;;;11.40;99.90;;;;;;5447538;26;20228;-73
2024/04/11 07:14:38;;;;;;;6.77;4.10;;;11.50;99.90;;;;;;5447998;26;20248;-73
2024/04/11 07:17:11;;;;;;;5.80;4.17;;;11.50;99.90;;;;;;5447236;26;20329;-73
2024/04/11 07:19:42;;;;;;;3.60;3.30;;;11.60;99.90;;;;;;5447590;26;20228;-73
2024/04/11 07:22:18;;;;;;;4.83;3.90;;;11.60;99.90;;;;;;5447102;26;20240;-73
2024/04/11 07:24:44;;;;;;;5.60;3.97;;;11.70;99.90;;;;;;5447655;26;20287;-73
2024/04/11 07:27:17;;;;;;;4.67;4.00;;;11.70;99.90;;;;;;5446986;26;20228;-73
2024/04/11 07:29:45;;;;;;;5.50;3.70;;;11.80;99.90;;;;;;5481380;26;20227;-73
2024/04/11 07:32:14;;;;;;;5.27;4.33;;;11.90;99.90;;;;;;5483433;26;20265;-73
2024/04/11 07:34:43;;;;;;;7.40;3.80;;;11.90;99.90;;;;;;5483806;26;20597;-73
2024/04/11 07:37:13;;;;;;;3.80;3.43;;;12.00;99.90;;;;;;5483221;26;20227;-70
2024/04/11 07:39:39;;;;;;;4.33;3.93;;;12.10;99.90;;;;;;5483583;26;20227;-73
2024/04/11 07:44:49;;;;;;;5.50;3.50;;;12.20;99.90;;;;;;5483729;26;20254;-73
2024/04/11 07:47:16;;;;;;;5.13;3.50;;;12.20;99.90;;;;;;5483107;26;20223;-73
2024/04/11 07:49:49;;;;;;;4.53;3.23;;;12.30;99.90;;;;;;5481715;26;20219;-73
2024/04/11 07:52:15;;;;;;;4.63;3.47;;;12.40;99.90;;;;;;5483136;26;20231;-73
2024/04/11 07:54:44;;;;;;;4.00;3.30;;;12.40;99.90;;;;;;5478658;26;20231;-73
2024/04/11 07:57:11;;;;;;;4.13;3.10;;;12.50;99.90;;;;;;5446986;26;20228;-73
2024/04/11 07:59:40;;;;;;;3.73;2.90;;;12.50;99.90;;;;;;5479699;26;20800;-73
2024/04/11 08:02:06;;;;;;;20.13;3.23;;;12.70;99.90;;;;;;5483123;26;20275;-73
2024/04/11 08:04:34;;;;;;;3.17;1.63;;;13.00;99.90;;;;;;5476840;26;20719;-73
2024/04/11 08:07:03;;;;;;;2.03;1.80;;;13.30;99.90;;;;;;5446761;26;20232;-73
2024/04/11 08:09:44;;;;;;;4.53;3.40;;;13.60;99.90;;;;;;5446445;26;20331;-73
2024/04/11 08:12:10;;;;;;;1.57;1.40;;;13.70;99.90;;;;;;5446884;26;20266;-73
2024/04/11 08:14:38;;;;;;;1.37;1.20;;;13.80;99.90;;;;;;5446815;26;20606;-73
2024/04/11 08:17:04;;;;;;;2.47;1.40;;;13.90;99.90;;;;;;5446963;26;20267;-73
2024/04/11 08:19:33;;;;;;;3.30;1.30;;;14.00;99.90;;;;;;5446589;26;20248;-73
2024/04/11 08:22:01;;;;;;;1.70;1.60;;;14.10;99.90;;;;;;5456477;26;20242;-73
2024/04/11 08:24:32;;;;;;;2.10;1.60;;;14.20;99.90;;;;;;5483230;26;20227;-73
2024/04/11 08:26:58;;;;;;;4.00;1.30;;;14.20;99.90;;;;;;5483136;26;20227;-73
2024/04/11 08:29:27;;;;;;;3.70;1.30;;;14.30;99.90;;;;;;5453089;26;20739;-73
2024/04/11 08:31:53;;;;;;;6.40;1.57;;;14.30;99.90;;;;;;5446375;26;21063;-73
2024/04/11 08:34:22;;;;;;;1.73;1.13;;;14.40;99.90;;;;;;5446537;26;20309;-73
2024/04/11 08:36:48;;;;;;;4.60;1.60;;;14.40;99.90;;;;;;5445966;26;20324;-73
2024/04/11 08:39:16;;;;;;;2.37;1.60;;;14.50;99.90;;;;;;5446063;26;20228;-73
2024/04/11 08:41:46;;;;;;;7.43;2.17;;;14.60;99.90;;;;;;5446531;26;20220;-71
2024/04/11 08:44:15;;;;;;;2.13;1.27;;;14.60;99.90;;;;;;5446155;26;20576;-71
2024/04/11 08:46:43;;;;;;;1.30;1.20;;;14.70;99.90;;;;;;5446480;26;20224;-72
2024/04/11 08:49:13;;;;;;;2.47;1.07;;;14.70;99.90;;;;;;5446012;26;20224;-72
2024/04/11 08:51:39;;;;;;;3.23;1.37;;;14.80;99.90;;;;;;5446048;26;20785;-72
2024/04/11 08:54:12;;;;;;;1.73;0.97;;;14.90;99.90;;;;;;5446551;26;20263;-71
2024/04/11 08:56:38;;;;;;;1.43;1.20;;;15.00;99.90;;;;;;5446700;26;20267;-71
2024/04/11 08:59:12;;;;;;;1.97;1.10;;;15.10;99.90;;;;;;5470384;26;20276;-72
2024/04/11 09:01:38;;;;;;;5.47;1.40;;;15.10;99.90;;;;;;5446745;26;20281;-72
2024/04/11 09:04:08;;;;;;;4.60;1.53;;;15.20;99.90;;;;;;5446070;26;20252;-72
2024/04/11 09:06:34;;;;;;;4.23;1.40;;;15.20;99.90;;;;;;5446731;26;20604;-72
2024/04/11 09:09:07;;;;;;;1.97;1.27;;;15.40;99.90;;;;;;5482696;26;20467;-72
2024/04/11 09:11:33;;;;;;;3.50;1.63;;;15.40;99.20;;;;;;5482641;26;20223;-72
2024/04/11 09:14:01;;;;;;;4.00;1.37;;;15.40;99.10;;;;;;5482871;26;20235;-72
2024/04/11 09:16:33;;;;;;;7.73;1.63;;;15.40;99.90;;;;;;5482802;26;20230;-73
2024/04/11 09:19:07;;;;;;;2.30;1.40;;;15.50;99.90;;;;;;5460966;26;20271;-73
2024/04/11 09:21:33;;;;;;;2.70;1.60;;;15.70;99.40;;;;;;5445970;26;20236;-72
2024/04/11 09:24:02;;;;;;;1.60;1.03;;;15.90;99.90;;;;;;5446039;26;20893;-72
2024/04/11 09:26:28;;;;;;;3.33;1.20;;;16.00;99.30;;;;;;5446418;26;20840;-72
2024/04/11 09:28:57;;;;;;;1.80;1.20;;;16.00;98.80;;;;;;5468030;26;20227;-72
2024/04/11 09:31:24;;;;;;;2.70;1.17;;;16.10;99.30;;;;;;5482493;26;20227;-72
2024/04/11 09:33:57;;;;;;;2.00;1.03;;;16.10;98.30;;;;;;5482537;26;20227;-72
2024/04/11 09:36:27;;;;;;;3.83;1.07;;;16.10;98.60;;;;;;5482260;26;20578;-72
2024/04/11 09:39:04;;;;;;;2.77;1.43;;;16.00;98.00;;;;;;5482424;26;20231;-72
2024/04/11 09:41:34;;;;;;;4.30;1.07;;;16.10;98.20;;;;;;5482933;26;20219;-72
2024/04/11 09:44:06;;;;;;;2.77;1.00;;;16.10;98.00;;;;;;5482130;26;20267;-73
2024/04/11 09:46:41;;;;;;;2.17;1.07;;;16.00;97.60;;;;;;5482604;26;20235;-72
2024/04/11 09:49:13;;;;;;;2.30;1.40;;;16.00;97.20;;;;;;5448546;26;20266;-72
2024/04/11 09:51:41;;;;;;;2.67;1.27;;;16.00;97.60;;;;;;5445802;26;20722;-72
2024/04/11 09:54:13;;;;;;;1.43;1.00;;;16.00;97.60;;;;;;5445624;26;20236;-72
2024/04/11 09:56:42;;;;;;;1.90;1.00;;;16.00;97.50;;;;;;5445527;26;20296;-72
2024/04/11 09:59:12;;;;;;;2.40;1.10;;;16.00;97.90;;;;;;5470799;26;20269;-72
2024/04/11 10:01:38;;;;;;;1.97;1.23;;;16.00;97.60;;;;;;5482046;26;20291;-72
2024/04/11 10:04:21;;;;;;;1.70;0.90;;;16.10;97.80;;;;;;5481010;26;20247;-72
2024/04/11 10:06:52;;;;;;;8.10;1.93;;;16.20;98.10;;;;;;5481690;26;20231;-72
2024/04/11 10:09:20;;;;;;;2.43;1.50;;;16.20;97.70;;;;;;5481343;26;20227;-72
2024/04/11 10:11:49;;;;;;;3.00;0.87;;;16.20;97.80;;;;;;5480693;26;20266;-72
2024/04/11 10:14:20;;;;;;;4.57;1.67;;;16.20;97.90;;;;;;5474515;26;20287;-72
2024/04/11 10:16:48;;;;;;;2.13;1.60;;;16.20;97.90;;;;;;5445040;26;20216;-72
2024/04/11 10:19:31;;;;;;;3.30;2.07;;;16.10;98.00;;;;;;5445043;26;20229;-72
2024/04/11 10:22:04;;;;;;;1.83;1.10;;;16.20;98.20;;;;;;5444171;26;20279;-72
2024/04/11 10:24:34;;;;;;;2.20;1.00;;;16.20;98.00;;;;;;5445062;26;20240;-72
2024/04/11 10:27:11;;;;;;;2.63;1.10;;;16.20;97.90;;;;;;5444557;26;20232;-72
2024/04/11 10:29:43;;;;;;;3.60;1.10;;;16.20;97.60;;;;;;5477630;26;20242;-72
2024/04/11 10:32:18;;;;;;;2.27;1.00;;;16.10;97.10;;;;;;5481261;26;20266;-72
2024/04/11 10:34:55;;;;;;;1.80;1.03;;;16.00;96.90;;;;;;5481135;26;20226;-72
2024/04/11 10:37:25;;;;;;;3.17;1.10;;;16.10;97.90;;;;;;5480789;26;20235;-72
2024/04/11 10:39:54;;;;;;;2.53;1.30;;;16.20;97.30;;;;;;5480683;26;20239;-72
2024/04/11 10:42:27;;;;;;;1.03;0.90;;;16.10;97.10;;;;;;5480733;26;20734;-72
2024/04/11 10:44:56;;;;;;;3.93;1.57;;;16.20;97.20;;;;;;5481055;26;20254;-72
2024/04/11 10:47:25;;;;;;;1.23;0.80;;;16.20;97.00;;;;;;5480815;26;20269;-72
2024/04/11 10:49:55;;;;;;;1.40;1.07;;;16.20;97.20;;;;;;5480576;26;20607;-72
2024/04/11 10:52:24;;;;;;;1.13;1.00;;;16.20;97.30;;;;;;5469638;26;20332;-72
2024/04/11 10:55:00;;;;;;;3.63;1.27;;;16.20;97.50;;;;;;5444787;26;20287;-72
2024/04/11 10:57:29;;;;;;;2.00;1.30;;;16.20;96.80;;;;;;5444878;26;20228;-72
2024/04/11 10:59:57;;;;;;;2.17;1.30;;;16.10;97.10;;;;;;5444145;26;20762;-72
2024/04/11 11:02:28;;;;;;;2.43;1.10;;;16.10;97.40;;;;;;5444118;26;20275;-72
2024/04/11 11:04:59;;;;;;;8.80;1.23;;;16.10;97.10;;;;;;5444440;26;20272;-72
2024/04/11 11:07:31;;;;;;;1.73;1.20;;;16.10;97.90;;;;;;5444401;26;20303;-72
2024/04/11 11:09:58;;;;;;;4.20;0.90;;;16.10;97.70;;;;;;5444487;26;20228;-72
2024/04/11 11:12:26;;;;;;;1.97;1.10;;;16.00;97.50;;;;;;5444015;26;20807;-72
2024/04/11 11:14:53;;;;;;;3.43;1.17;;;16.10;97.60;;;;;;5444034;26;20267;-72
2024/04/11 11:17:22;;;;;;;1.70;1.03;;;16.00;97.60;;;;;;5444383;26;20228;-72
2024/04/11 11:19:49;;;;;;;2.03;1.17;;;16.00;98.10;;;;;;5444378;26;20229;-72
2024/04/11 11:22:29;;;;;;;1.27;1.17;;;16.10;97.60;;;;;;5443789;26;20279;-72
2024/04/11 11:24:58;;;;;;;2.63;0.93;;;16.10;97.30;;;;;;5446977;26;20236;-73
2024/04/11 11:27:28;;;;;;;1.30;0.90;;;16.10;96.80;;;;;;5447432;26;20630;-73
2024/04/11 11:29:56;;;;;;;3.27;1.10;;;16.20;97.30;;;;;;5447755;26;20224;-73
2024/04/11 11:32:25;;;;;;;2.70;1.20;;;16.30;97.30;;;;;;5447709;26;20228;-71
2024/04/11 11:34:52;;;;;;;0.90;0.90;;;16.30;97.50;;;;;;5447633;26;20266;-70
2024/04/11 11:37:24;;;;;;;1.63;1.00;;;16.30;97.00;;;;;;5447186;26;20708;-72
2024/04/11 11:39:55;;;;;;;2.57;1.20;;;16.20;96.50;;;;;;5454160;26;20831;-72
2024/04/11 11:42:26;;;;;;;1.63;1.10;;;16.20;97.10;;;;;;5483884;26;20227;-72
2024/04/11 11:45:16;;;;;;;1.80;1.03;;;16.30;98.10;;;;;;5483749;26;20753;-72
2024/04/11 11:47:49;;;;;;;3.90;1.03;;;16.40;97.80;;;;;;5483554;26;20422;-72
2024/04/11 11:50:21;;;;;;;6.13;1.23;;;16.40;98.10;;;;;;5447966;26;20274;-72
2024/04/11 11:52:55;;;;;;;1.53;0.90;;;16.50;98.20;;;;;;5447044;26;20581;-72
2024/04/11 11:55:25;;;;;;;2.43;1.07;;;16.60;98.40;;;;;;5448320;26;20252;-72
2024/04/11 11:57:54;;;;;;;1.30;1.00;;;16.70;98.40;;;;;;5477654;26;20336;-73
2024/04/11 12:00:22;;;;;;;1.30;1.00;;;16.70;96.80;;;;;;5447276;26;20268;-72
2024/04/11 12:02:55;;;;;;;3.30;1.20;;;16.60;96.80;;;;;;5447166;26;20892;-73
2024/04/11 12:05:24;;;;;;;3.97;1.20;;;16.60;97.10;;;;;;5447258;26;20228;-72
2024/04/11 12:07:57;;;;;;;1.37;1.10;;;16.60;96.60;;;;;;5446957;26;20240;-72
2024/04/11 12:10:29;;;;;;;2.20;1.07;;;16.50;96.20;;;;;;5447280;26;20267;-72
2024/04/11 12:13:18;;;;;;;2.30;1.10;;;16.40;96.50;;;;;;5447388;26;20228;-72
2024/04/11 12:15:45;;;;;;;2.03;1.20;;;16.40;96.90;;;;;;5447321;26;20296;-72
2024/04/11 12:18:16;;;;;;;2.07;1.20;;;16.40;96.90;;;;;;5447188;26;20259;-72
2024/04/11 12:20:43;;;;;;;2.53;1.20;;;16.40;96.90;;;;;;5446936;26;20295;-72
2024/04/11 12:23:15;;;;;;;1.50;1.10;;;16.30;97.20;;;;;;5446588;26;20291;-72
2024/04/11 12:25:44;;;;;;;6.57;1.63;;;16.40;97.30;;;;;;5447273;26;20616;-72
2024/04/11 12:28:11;;;;;;;3.37;1.07;;;16.40;97.70;;;;;;5447149;26;20220;-72
2024/04/11 12:30:40;;;;;;;4.77;1.40;;;16.40;97.40;;;;;;5447405;26;20299;-72
2024/04/11 12:33:08;;;;;;;2.30;1.20;;;16.40;97.60;;;;;;5446606;26;20278;-72
2024/04/11 12:35:45;;;;;;;4.43;1.27;;;16.40;97.70;;;;;;5446183;26;20276;-72
2024/04/11 12:38:15;;;;;;;2.63;1.20;;;16.50;97.40;;;;;;5446685;26;20254;-72
2024/04/11 12:40:48;;;;;;;2.80;1.33;;;16.40;97.10;;;;;;5447218;26;20275;-72
2024/04/11 12:43:15;;;;;;;2.20;1.20;;;16.40;97.20;;;;;;5447018;26;20228;-73
2024/04/11 12:45:51;;;;;;;2.20;1.20;;;16.50;97.90;;;;;;5446707;26;20278;-72
2024/04/11 12:48:20;;;;;;;1.17;1.07;;;16.50;97.80;;;;;;5446830;26;20231;-72
2024/04/11 12:50:50;;;;;;;1.57;1.03;;;16.50;97.50;;;;;;5447082;26;20232;-72
2024/04/11 12:53:21;;;;;;;3.47;1.13;;;16.50;97.20;;;;;;5446027;26;20244;-72
2024/04/11 12:55:52;;;;;;;4.97;1.20;;;16.40;96.90;;;;;;5447108;26;20711;-72
2024/04/11 12:58:19;;;;;;;5.53;1.90;;;16.50;97.60;;;;;;5459313;26;20239;-72
2024/04/11 13:00:57;;;;;;;3.07;1.33;;;16.40;98.10;;;;;;5456474;26;20348;-72
2024/04/11 13:03:35;;;;;;;2.60;1.10;;;16.50;98.10;;;;;;5446170;26;20244;-73